ROMMA est une association bénévole à but non lucratif. Votre soutien est indispensable : ADHERER à ROMMA ou FAIRE un DON

Granges-lès-Beaumont - (26, Drôme)

Drôme des Collines (155 m)   Longitude: 04°58'E   Latitude: 45°03'N Station partenaire n°123
 

Détail journalier du     <<     >>

Température Precipitation Humidité Pression Vent Dir Rafale Dir. rafale Ensol.
Heure (°C) (mm) (%) (hPa) (km/h) (km/h) (min)
01:00 6.009410091---6NNO0
02:00 7.408910106NNO13NNO0
03:00 7.608910104NNE11NE0
04:00 7.608810108ENE18NE0
05:00 6.209010113ENE8ENE0
06:00 6.208910112---8N0
07:00 4.609510122ENE8ENE0
08:00 5.409310131---10E0
09:00 6.7092101300---0
10:00 8.408710131---8E0
11:00 9.308210139NE18ENE0
12:00 9.907910128N16ENE0
13:00 11.3075101213NE24NE10
14:00 11.9070101113NNE23NNE30
15:00 11.7065101112NNE21NNE40
16:00 11.906710106N16NE0
17:00 10.307010106NNE16N0
18:00 7.108510105NNO11NNO0
19:00 5.608910092N8NNO0
20:00 4.509210092NNO8E0
21:00 3.709410091N6NO0
22:00 3.109410092N8NNO0
23:00 2.509410092ENE8E0
minuit 3.309510081ENE6ENE0

Graphique du 09-11-2019

 

Serveur OMMA